Portada
METAR-TAF:

METAR-TAF

Aeroports :

Kunming, Xina

latitud: 25-01N, longitud: 102-41E, altitud: 1892 m

Observació

L'informe es va fer fa 37 minuts, a les 15:00 UTC
Vent 14 kt del Sud-Oest
Temperatura 11°C
Humitat 62%
Pressió 1018 hPa
Visibilitat 10 km o més
Escasses núvols a una alçada de 2600 ft

METAR: ZPPP 231500Z 22007MPS 9999 FEW026 11/04 Q1018 NOSIG

Hora: 23:37 (15:37 UTC)

Pronòstic

L'informe es va fer fa 8 hores i 32 minuts, a les 07:05 UTC
Pronòstic vàlid del 23 a les 12 UTC al 24 a les 12 UTC
Vent 14 kt del Sud-Oest
Visibilitat 10 km o més
Escasses núvols a una alçada de 2600 ft
Evolucionant progressivament
l' 24 a les 03 UTC al 24 a les 04 UTC
Vent 23 kt del Sud-Oest amb ràfegues de 37 kt
Evolucionant progressivament
l' 24 a les 11 UTC al 24 a les 12 UTC
Vent 14 kt del Sud-Oest

TAF: ZPPP 230705Z 2312/2412 23007MPS 9999 FEW026 TX19/2408Z TN06/2323Z BECMG 2403/2404 23012G19MPS BECMG 2411/2412 23007MPS

Observacions i pronòstics meteorològics de més de 4000 aeroports (METAR i TAF).

Les estacions disponibles són els punts grocs i vermells al mapa.

Posi el ratolí al punt desitjat per veure el nom de l'estació.

Feu clic per veure les observacions i els pronòstics meteorològics.

Per canviar el mapa: feu clic els botons verds amb una creu de color negre per apropar; al botó verd amb un guió per allunyar la imatge; o en les fletxes verdes per a mapes adjacents.


METAR-TAF: